Time;durP1;ratioP1;P1;durP2;ratioP2;P2;SDS_P1;SDS_P2;PMS_P1;PMS_P2;Temp;Humidity;BMP_temperature;BMP_pressure;BME280_temperature;BME280_humidity;BME280_pressure;Samples;Min_cycle;Max_cycle;Signal;HPM_P1;HPM_P2
2021/12/18 00:00:42;;;;;;;19.73;10.38;;;;;;;3.22;87.38;101634.53;5068342;28;20115;-66
2021/12/18 00:03:08;;;;;;;20.02;9.48;;;;;;;3.18;87.58;101632.91;5062821;28;20029;-66
2021/12/18 00:05:33;;;;;;;19.52;10.15;;;;;;;3.24;87.41;101649.47;5048565;28;20045;-67
2021/12/18 00:07:59;;;;;;;24.05;9.65;;;;;;;3.18;87.60;101633.78;5066967;28;20125;-67
2021/12/18 00:10:24;;;;;;;19.90;10.02;;;;;;;3.18;87.62;101638.19;5065601;28;20036;-66
2021/12/18 00:12:52;;;;;;;20.10;10.68;;;;;;;3.17;87.78;101644.44;5057333;28;20056;-66
2021/12/18 00:15:20;;;;;;;20.02;10.02;;;;;;;3.12;88.15;101644.59;5047974;28;20503;-66
2021/12/18 00:17:46;;;;;;;18.90;8.85;;;;;;;3.01;88.56;101625.56;5054760;28;20661;-66
2021/12/18 00:20:14;;;;;;;19.73;9.73;;;;;;;3.08;88.38;101635.03;5048512;28;20044;-66
2021/12/18 00:22:40;;;;;;;19.85;10.95;;;;;;;3.05;88.22;101640.44;5049310;28;20379;-66
2021/12/18 00:25:06;;;;;;;20.35;9.70;;;;;;;3.04;88.32;101641.38;5051153;28;20035;-66
2021/12/18 00:27:31;;;;;;;22.25;9.52;;;;;;;3.08;88.29;101650.06;5052252;28;20049;-66
2021/12/18 00:29:57;;;;;;;16.08;9.40;;;;;;;3.06;88.13;101662.53;5048658;28;20549;-66
2021/12/18 00:32:22;;;;;;;19.67;10.02;;;;;;;3.00;88.27;101666.22;5066691;28;20032;-66
2021/12/18 00:34:48;;;;;;;19.65;10.00;;;;;;;2.97;88.90;101666.34;5052860;28;20079;-66
2021/12/18 00:37:13;;;;;;;19.65;9.82;;;;;;;2.91;88.88;101652.44;5054765;28;20464;-66
2021/12/18 00:39:47;;;;;;;21.52;9.77;;;;;;;2.92;88.82;101659.47;5069369;28;20127;-66
2021/12/18 00:42:49;;;;;;;16.80;9.43;;;;;;;2.93;88.87;101661.22;5061468;28;20098;-66
2021/12/18 00:45:15;;;;;;;14.88;7.78;;;;;;;2.87;89.09;101658.78;5047941;28;20048;-66
2021/12/18 00:47:42;;;;;;;18.80;10.13;;;;;;;2.87;88.74;101674.69;5069401;28;20086;-66
2021/12/18 00:50:12;;;;;;;16.40;8.75;;;;;;;2.83;89.67;101675.72;5057089;28;20034;-66
2021/12/18 00:52:37;;;;;;;18.70;8.45;;;;;;;2.80;89.69;101667.88;5066749;28;20044;-66
2021/12/18 00:55:04;;;;;;;18.65;9.13;;;;;;;2.88;89.49;101668.44;5064159;28;20590;-66
2021/12/18 00:57:29;;;;;;;18.38;9.05;;;;;;;2.86;89.45;101678.22;5054690;28;20040;-65
2021/12/18 01:00:00;;;;;;;20.63;9.68;;;;;;;2.82;90.03;101680.13;5061184;28;20027;-66
2021/12/18 01:02:27;;;;;;;16.58;8.82;;;;;;;2.76;89.96;101679.47;5067983;28;20035;-65
2021/12/18 01:04:53;;;;;;;16.65;8.85;;;;;;;2.77;89.81;101681.22;5064719;28;20434;-66
2021/12/18 01:07:19;;;;;;;16.02;8.85;;;;;;;2.83;90.08;101691.59;5048003;28;20028;-65
2021/12/18 01:09:58;;;;;;;18.63;8.27;;;;;;;2.82;89.38;101687.22;5054419;28;20099;-66
2021/12/18 01:12:29;;;;;;;16.25;7.78;;;;;;;2.78;88.67;101670.56;5049656;28;20043;-66
2021/12/18 01:15:14;;;;;;;14.00;8.07;;;;;;;2.94;88.48;101684.16;5049349;28;20090;-66
2021/12/18 01:23:10;;;;;;;16.17;8.77;;;;;;;2.83;88.68;101686.31;5059178;28;20071;-66
2021/12/18 01:25:35;;;;;;;16.38;7.75;;;;;;;2.82;88.64;101674.84;5048481;28;20052;-66
2021/12/18 01:28:02;;;;;;;15.45;7.53;;;;;;;2.88;88.22;101681.69;5046084;28;21425;-66
2021/12/18 01:30:27;;;;;;;15.77;7.68;;;;;;;2.78;88.46;101673.22;5049755;28;20036;-66
2021/12/18 01:32:54;;;;;;;18.85;8.77;;;;;;;2.80;88.71;101681.97;5046893;28;20072;-66
2021/12/18 01:35:21;;;;;;;17.42;8.40;;;;;;;2.75;88.85;101669.78;5049981;28;20086;-66
2021/12/18 01:37:48;;;;;;;15.73;8.30;;;;;;;2.74;88.29;101676.88;5047586;28;20474;-66
2021/12/18 01:40:14;;;;;;;15.10;7.85;;;;;;;2.74;88.31;101684.81;5049776;28;20102;-66
2021/12/18 01:53:57;;;;;;;16.05;7.30;;;;;;;2.63;89.27;101699.34;5045795;28;20064;-66
2021/12/18 01:56:24;;;;;;;13.75;6.65;;;;;;;2.57;89.37;101704.88;5046949;28;20036;-66
2021/12/18 01:58:51;;;;;;;15.85;7.53;;;;;;;2.49;90.54;101707.75;5048883;28;20044;-66
2021/12/18 02:01:18;;;;;;;16.30;8.00;;;;;;;2.43;90.64;101707.94;5050258;28;20250;-66
2021/12/18 02:03:44;;;;;;;20.65;8.85;;;;;;;2.41;90.96;101716.88;5050165;28;20036;-67
2021/12/18 02:06:10;;;;;;;16.45;8.27;;;;;;;2.41;91.29;101719.53;5051284;28;20085;-66
2021/12/18 02:08:38;;;;;;;12.65;7.32;;;;;;;2.43;91.71;101723.84;5052158;28;20037;-66
2021/12/18 02:14:00;;;;;;;15.35;8.10;;;;;;;2.50;91.92;101732.44;5050027;28;20111;-67
2021/12/18 02:21:52;;;;;;;15.10;7.65;;;;;;;2.65;91.81;101722.22;5046022;28;20582;-66
2021/12/18 02:24:19;;;;;;;15.63;7.65;;;;;;;2.64;92.24;101727.56;5046811;28;20107;-66
2021/12/18 02:26:45;;;;;;;13.07;7.07;;;;;;;2.67;92.13;101722.19;5047656;28;20102;-66
2021/12/18 02:29:14;;;;;;;13.85;7.47;;;;;;;2.70;92.44;101730.88;5045274;28;20484;-66
2021/12/18 02:31:40;;;;;;;14.38;7.43;;;;;;;2.85;91.64;101718.91;5046873;28;20035;-67
2021/12/18 02:34:13;;;;;;;17.30;7.82;;;;;;;2.83;91.19;101710.16;5047594;28;20035;-66
2021/12/18 02:36:46;;;;;;;17.70;8.10;;;;;;;2.93;90.84;101704.47;5048089;28;20025;-66
2021/12/18 02:42:19;;;;;;;14.32;7.72;;;;;;;3.06;90.09;101702.28;5046235;28;20112;-66
2021/12/18 02:44:45;;;;;;;15.23;7.55;;;;;;;3.09;90.18;101689.75;5047666;28;20056;-66
2021/12/18 02:47:12;;;;;;;17.85;7.43;;;;;;;3.13;89.90;101685.22;5050036;28;20033;-66
2021/12/18 02:49:49;;;;;;;17.48;7.65;;;;;;;3.11;89.81;101692.34;5053120;28;20097;-71
2021/12/18 02:52:16;;;;;;;15.73;7.25;;;;;;;3.03;89.97;101697.91;5063187;28;20392;-71
2021/12/18 02:54:42;;;;;;;22.65;8.40;;;;;;;3.17;89.45;101702.75;5059423;28;20368;-71
2021/12/18 02:57:08;;;;;;;14.85;7.45;;;;;;;3.13;89.55;101703.78;5058290;28;20082;-71
2021/12/18 02:59:48;;;;;;;13.18;7.15;;;;;;;3.17;89.96;101703.63;5062544;28;20028;-71
2021/12/18 03:02:15;;;;;;;13.05;6.55;;;;;;;3.17;89.52;101702.75;5053443;28;20037;-71
2021/12/18 03:04:44;;;;;;;12.43;7.00;;;;;;;3.22;89.12;101722.03;5051566;28;20093;-72
2021/12/18 03:07:12;;;;;;;14.15;6.90;;;;;;;3.20;89.54;101718.53;5053372;28;20472;-71
2021/12/18 03:25:28;;;;;;;10.68;6.50;;;;;;;3.16;88.11;101717.78;5061096;28;20040;-71
2021/12/18 03:27:54;;;;;;;15.80;6.97;;;;;;;3.24;88.22;101725.47;5066466;28;20049;-71
2021/12/18 03:30:21;;;;;;;12.90;6.82;;;;;;;3.16;88.23;101727.53;5069459;28;20042;-71
2021/12/18 03:32:47;;;;;;;13.82;7.72;;;;;;;3.18;88.32;101736.28;5056344;28;20039;-71
2021/12/18 03:35:14;;;;;;;14.27;7.35;;;;;;;3.20;87.89;101737.97;5063533;28;20113;-71
2021/12/18 03:37:40;;;;;;;13.13;6.60;;;;;;;3.15;88.22;101739.91;5060727;28;20126;-71
2021/12/18 03:40:09;;;;;;;13.02;6.10;;;;;;;3.14;88.55;101746.16;5059110;28;20487;-71
2021/12/18 03:42:35;;;;;;;11.52;6.43;;;;;;;3.08;88.54;101735.75;5054852;28;20063;-71
2021/12/18 03:45:03;;;;;;;14.70;7.47;;;;;;;3.07;88.74;101735.78;5065195;28;20033;-71
2021/12/18 03:47:28;;;;;;;12.07;6.97;;;;;;;3.09;89.01;101755.19;5068399;28;20040;-71
2021/12/18 03:49:53;;;;;;;15.70;7.45;;;;;;;2.99;89.06;101756.38;5058567;28;20377;-71
2021/12/18 03:52:19;;;;;;;13.88;8.18;;;;;;;3.05;88.98;101758.81;5059422;28;20020;-71
2021/12/18 03:54:44;;;;;;;14.45;7.57;;;;;;;3.05;89.40;101762.34;5062202;28;20379;-71
2021/12/18 03:57:10;;;;;;;19.17;8.60;;;;;;;2.92;89.84;101754.84;5058696;28;20043;-71
2021/12/18 03:59:35;;;;;;;16.52;8.15;;;;;;;2.95;89.59;101763.59;5066533;28;20168;-71
2021/12/18 04:02:01;;;;;;;17.42;8.93;;;;;;;2.96;89.35;101773.25;5055236;28;20036;-71
2021/12/18 04:04:26;;;;;;;16.20;8.82;;;;;;;2.95;89.97;101774.19;5060243;28;20034;-71
2021/12/18 04:06:52;;;;;;;17.33;8.20;;;;;;;2.96;90.58;101777.72;5055399;28;20056;-71
2021/12/18 04:09:18;;;;;;;16.00;7.55;;;;;;;2.93;89.96;101761.91;5057076;28;20493;-71
2021/12/18 04:11:44;;;;;;;15.68;7.75;;;;;;;2.95;90.41;101781.25;5059307;28;20043;-71
2021/12/18 04:14:13;;;;;;;15.43;8.27;;;;;;;2.90;90.47;101778.75;5053588;28;20261;-71
2021/12/18 04:16:39;;;;;;;14.98;8.13;;;;;;;2.86;90.62;101781.56;5062322;28;20024;-71
2021/12/18 04:19:05;;;;;;;13.88;7.43;;;;;;;2.82;90.70;101785.22;5062936;28;20095;-71
2021/12/18 04:21:33;;;;;;;15.05;7.97;;;;;;;2.84;90.58;101794.00;5061641;28;20035;-71
2021/12/18 04:24:00;;;;;;;16.17;8.10;;;;;;;2.80;91.02;101782.63;5052188;28;20055;-71
2021/12/18 04:26:25;;;;;;;12.73;7.47;;;;;;;2.74;91.19;101777.53;5062868;28;20464;-70
2021/12/18 04:28:51;;;;;;;14.32;7.20;;;;;;;2.73;91.39;101786.41;5056062;28;20044;-71
2021/12/18 04:31:17;;;;;;;16.60;7.60;;;;;;;2.65;91.37;101764.59;5052027;28;20039;-70
2021/12/18 04:33:43;;;;;;;17.33;7.20;;;;;;;2.69;91.89;101774.19;5062497;28;20037;-71
2021/12/18 04:36:08;;;;;;;15.98;7.68;;;;;;;2.65;91.69;101756.66;5056813;28;20028;-71
2021/12/18 04:38:34;;;;;;;20.38;8.55;;;;;;;2.68;92.04;101777.75;5056661;28;20046;-71
2021/12/18 04:41:02;;;;;;;17.80;9.00;;;;;;;2.65;92.00;101780.50;5062255;28;20028;-70
2021/12/18 04:43:27;;;;;;;14.65;8.18;;;;;;;2.61;92.36;101784.13;5056196;28;20024;-70
2021/12/18 04:45:53;;;;;;;14.57;8.00;;;;;;;2.66;92.27;101794.59;5050997;28;20500;-70
2021/12/18 04:48:18;;;;;;;15.02;7.93;;;;;;;2.63;92.72;101799.97;5056330;28;20075;-70
2021/12/18 04:50:44;;;;;;;17.95;8.18;;;;;;;2.63;92.67;101805.28;5055748;28;20032;-69
2021/12/18 04:53:10;;;;;;;15.82;8.25;;;;;;;2.66;93.19;101816.66;5059707;28;20741;-70
2021/12/18 04:55:36;;;;;;;13.35;7.38;;;;;;;2.71;93.16;101814.69;5069328;28;20016;-70
2021/12/18 04:58:01;;;;;;;17.73;9.55;;;;;;;2.71;92.62;101816.50;5060352;28;20039;-70
2021/12/18 05:00:36;;;;;;;15.48;7.53;;;;;;;2.72;92.73;101823.53;5058099;28;20183;-70
2021/12/18 05:03:05;;;;;;;15.45;8.38;;;;;;;2.73;92.51;101822.59;5050277;28;20037;-70
2021/12/18 05:05:31;;;;;;;16.38;8.02;;;;;;;2.75;92.37;101826.09;5061462;28;20021;-70
2021/12/18 05:07:56;;;;;;;14.52;8.10;;;;;;;2.69;92.29;101818.31;5059487;28;20494;-70
2021/12/18 05:10:21;;;;;;;16.25;8.32;;;;;;;2.79;92.27;101855.09;5058626;28;20037;-70
2021/12/18 05:12:47;;;;;;;19.08;8.80;;;;;;;2.78;92.56;101849.81;5064114;28;20511;-70
2021/12/18 05:15:13;;;;;;;18.48;8.70;;;;;;;2.80;92.40;101862.09;5057023;28;20087;-70
2021/12/18 05:17:39;;;;;;;17.08;9.07;;;;;;;2.82;92.38;101870.00;5069279;28;20025;-70
2021/12/18 05:20:05;;;;;;;19.83;9.27;;;;;;;2.82;92.16;101877.94;5062571;28;20033;-70
2021/12/18 05:22:31;;;;;;;16.48;9.85;;;;;;;2.82;92.61;101880.59;5064083;28;20584;-70
2021/12/18 05:24:56;;;;;;;19.27;9.80;;;;;;;2.77;92.37;101880.75;5059775;28;20040;-70
2021/12/18 05:27:21;;;;;;;14.85;9.25;;;;;;;2.74;92.66;101878.19;5065787;28;20068;-70
2021/12/18 05:29:47;;;;;;;17.27;9.95;;;;;;;2.82;92.58;101904.44;5061318;28;20024;-70
2021/12/18 05:32:12;;;;;;;19.40;9.98;;;;;;;2.81;92.53;101897.44;5061230;28;20785;-70
2021/12/18 05:34:38;;;;;;;18.35;9.07;;;;;;;2.82;92.63;101893.84;5058162;28;20024;-70
2021/12/18 05:37:20;;;;;;;16.35;9.73;;;;;;;2.89;92.36;101901.56;5054962;28;20033;-69
2021/12/18 05:39:47;;;;;;;19.30;9.65;;;;;;;2.88;92.32;101912.22;5059715;28;20028;-70
2021/12/18 05:42:13;;;;;;;18.98;9.52;;;;;;;2.88;92.36;101910.44;5058130;28;20514;-70
2021/12/18 05:44:39;;;;;;;15.07;9.50;;;;;;;2.85;92.47;101910.53;5051102;28;20020;-70
2021/12/18 05:47:05;;;;;;;18.55;9.57;;;;;;;2.83;92.52;101906.19;5057752;28;20032;-70
2021/12/18 05:49:30;;;;;;;20.35;10.05;;;;;;;2.87;92.54;101918.44;5056762;28;20028;-70
2021/12/18 05:51:56;;;;;;;24.83;12.20;;;;;;;2.88;92.23;101914.84;5049200;28;20503;-70
2021/12/18 05:54:22;;;;;;;19.75;11.45;;;;;;;2.86;92.59;101919.31;5059779;28;20033;-70
2021/12/18 05:56:47;;;;;;;18.27;11.38;;;;;;;2.87;92.83;101907.84;5050740;28;20111;-70
2021/12/18 05:59:13;;;;;;;17.45;11.15;;;;;;;2.84;92.47;101922.03;5060639;28;20253;-70
2021/12/18 06:01:38;;;;;;;19.35;10.30;;;;;;;2.88;92.70;101917.50;5051445;28;20031;-70
2021/12/18 06:04:04;;;;;;;22.92;10.48;;;;;;;2.84;92.46;101914.06;5048209;28;20075;-71
2021/12/18 06:06:30;;;;;;;16.60;9.52;;;;;;;2.91;92.39;101928.91;5051802;28;20036;-70
2021/12/18 06:08:56;;;;;;;18.83;8.88;;;;;;;2.92;92.74;101929.75;5055809;28;20101;-70
2021/12/18 06:11:22;;;;;;;18.88;9.93;;;;;;;2.97;92.23;101923.38;5052066;28;20059;-70
2021/12/18 06:13:50;;;;;;;17.40;9.95;;;;;;;2.90;91.82;101913.03;5053383;28;20021;-70
2021/12/18 06:16:17;;;;;;;17.63;9.57;;;;;;;3.03;91.48;101930.28;5050241;28;20388;-70
2021/12/18 06:18:44;;;;;;;17.90;9.48;;;;;;;3.00;91.34;101928.59;5054291;28;20098;-70
2021/12/18 06:21:14;;;;;;;14.57;8.70;;;;;;;3.01;91.14;101930.34;5060135;28;20166;-70
2021/12/18 06:23:41;;;;;;;23.05;10.52;;;;;;;3.01;91.23;101922.38;5057405;28;20068;-70
2021/12/18 06:26:07;;;;;;;19.08;10.30;;;;;;;3.02;90.95;101926.75;5060011;28;20040;-70
2021/12/18 06:28:33;;;;;;;18.50;10.70;;;;;;;3.06;90.88;101931.03;5065627;28;20032;-70
2021/12/18 06:30:58;;;;;;;20.65;9.65;;;;;;;3.07;90.70;101934.56;5063803;28;20043;-70
2021/12/18 06:33:24;;;;;;;17.88;9.73;;;;;;;3.05;90.39;101934.63;5068336;28;20664;-70
2021/12/18 06:35:50;;;;;;;18.27;9.55;;;;;;;3.00;90.14;101909.19;5061388;28;20027;-70
2021/12/18 06:38:15;;;;;;;21.55;9.57;;;;;;;3.12;89.50;101936.16;5070680;28;20035;-70
2021/12/18 06:40:41;;;;;;;21.20;10.15;;;;;;;3.05;89.38;101923.13;5061518;28;20028;-70
2021/12/18 06:43:07;;;;;;;15.48;9.38;;;;;;;3.06;89.70;101931.03;5056730;28;20104;-70
2021/12/18 06:45:33;;;;;;;17.00;9.55;;;;;;;3.04;89.53;101943.50;5058767;28;20028;-70
2021/12/18 06:47:58;;;;;;;21.33;10.57;;;;;;;2.95;89.18;101937.59;5058967;28;20035;-70
2021/12/18 06:50:24;;;;;;;16.25;9.80;;;;;;;2.97;89.16;101957.81;5055262;28;20644;-70
2021/12/18 06:52:50;;;;;;;21.23;11.32;;;;;;;2.99;88.84;101973.69;5048849;28;20037;-70
2021/12/18 06:55:15;;;;;;;18.15;9.45;;;;;;;2.95;89.01;101962.31;5056360;28;20043;-70
2021/12/18 06:57:41;;;;;;;19.80;10.50;;;;;;;2.95;88.69;101956.16;5059173;28;20707;-70
2021/12/18 07:00:10;;;;;;;15.40;8.75;;;;;;;2.94;88.94;101965.91;5048008;28;20041;-70
2021/12/18 07:02:36;;;;;;;16.80;9.13;;;;;;;2.90;88.76;101958.94;5066172;28;20036;-70
2021/12/18 07:05:02;;;;;;;16.10;9.77;;;;;;;2.87;88.49;101955.53;5064402;28;20035;-70
2021/12/18 07:07:27;;;;;;;16.55;9.38;;;;;;;2.83;88.57;101953.88;5062191;28;20024;-70
2021/12/18 07:09:53;;;;;;;16.83;10.27;;;;;;;2.80;88.92;101951.34;5056131;28;20395;-70
2021/12/18 07:12:18;;;;;;;19.98;9.40;;;;;;;2.75;89.32;101948.81;5065689;28;20109;-70
2021/12/18 07:14:44;;;;;;;18.25;9.40;;;;;;;2.72;89.19;101954.22;5055846;28;20021;-70
2021/12/18 07:17:09;;;;;;;18.95;9.98;;;;;;;2.69;89.45;101959.59;5057593;28;20031;-70
2021/12/18 07:19:35;;;;;;;20.75;10.50;;;;;;;2.63;89.49;101951.81;5061748;28;20150;-70
2021/12/18 07:22:01;;;;;;;24.25;12.00;;;;;;;2.65;89.12;101952.66;5053863;28;20512;-70
2021/12/18 07:24:26;;;;;;;21.30;11.68;;;;;;;2.60;89.50;101945.72;5059765;28;20103;-70
2021/12/18 07:26:52;;;;;;;19.45;10.73;;;;;;;2.64;89.50;101955.34;5052947;28;20581;-70
2021/12/18 07:29:17;;;;;;;23.52;12.50;;;;;;;2.60;89.74;101965.16;5061206;28;20047;-70
2021/12/18 07:31:43;;;;;;;24.67;12.90;;;;;;;2.58;90.01;101955.53;5063515;28;20037;-70
2021/12/18 07:34:08;;;;;;;20.85;11.65;;;;;;;2.59;90.40;101976.66;5056910;28;20025;-70
2021/12/18 07:36:34;;;;;;;25.23;12.60;;;;;;;2.56;90.36;101974.09;5061034;28;20115;-70
2021/12/18 07:39:00;;;;;;;23.02;13.45;;;;;;;2.60;90.39;101980.16;5057701;28;20124;-70
2021/12/18 07:41:26;;;;;;;28.80;14.40;;;;;;;2.54;90.83;101973.25;5057697;28;20024;-70
2021/12/18 07:43:51;;;;;;;27.65;14.55;;;;;;;2.55;90.90;101976.78;5055777;28;20044;-70
2021/12/18 07:46:16;;;;;;;28.92;14.25;;;;;;;2.63;91.12;101993.31;5060755;28;20078;-70
2021/12/18 07:48:42;;;;;;;28.52;14.90;;;;;;;2.65;90.81;101988.84;5057701;28;20036;-70
2021/12/18 07:51:08;;;;;;;35.22;15.32;;;;;;;2.64;90.55;101981.84;5061172;28;20040;-70
2021/12/18 07:53:34;;;;;;;27.92;14.25;;;;;;;2.68;89.55;101986.13;5063956;28;20029;-70
2021/12/18 07:56:01;;;;;;;24.60;12.77;;;;;;;2.69;90.05;101991.38;5062585;28;20024;-70
2021/12/18 07:58:27;;;;;;;24.67;13.13;;;;;;;2.71;89.53;102004.56;5060334;28;20116;-70
2021/12/18 08:00:52;;;;;;;22.98;12.60;;;;;;;2.70;89.80;102006.34;5065492;28;20731;-70
2021/12/18 08:03:17;;;;;;;26.33;13.07;;;;;;;2.71;89.86;102015.16;5068447;28;20031;-70
2021/12/18 08:05:43;;;;;;;28.45;12.15;;;;;;;2.74;90.22;102000.03;5066525;28;20116;-70
2021/12/18 08:08:08;;;;;;;19.40;11.93;;;;;;;2.77;89.82;101994.66;5058967;28;20021;-70
2021/12/18 08:10:34;;;;;;;30.77;13.18;;;;;;;2.81;89.67;101998.97;5073101;28;20020;-70
2021/12/18 08:12:59;;;;;;;24.23;12.88;;;;;;;2.81;90.18;101990.16;5061304;28;20029;-70
2021/12/18 08:15:25;;;;;;;24.70;12.10;;;;;;;2.79;89.93;101986.66;5065831;28;20029;-70
2021/12/18 08:17:50;;;;;;;28.30;15.07;;;;;;;2.98;88.89;102003.75;5057756;28;20075;-70
2021/12/18 08:20:16;;;;;;;25.65;13.88;;;;;;;3.00;89.09;102015.19;5063483;28;20029;-70
2021/12/18 08:22:41;;;;;;;26.95;12.75;;;;;;;2.95;89.00;101999.44;5056665;28;20048;-70
2021/12/18 08:25:07;;;;;;;25.83;11.82;;;;;;;3.03;88.70;102008.00;5061465;28;20089;-70
2021/12/18 08:27:33;;;;;;;23.92;13.07;;;;;;;3.07;88.43;102001.72;5059398;28;20049;-70
2021/12/18 08:29:59;;;;;;;23.55;11.88;;;;;;;3.12;87.54;102001.53;5053798;28;20067;-70
2021/12/18 08:32:24;;;;;;;18.67;11.38;;;;;;;3.15;87.57;101997.03;5063607;28;20048;-70
2021/12/18 08:34:50;;;;;;;19.70;11.57;;;;;;;3.23;87.23;102002.09;5060609;28;20094;-70
2021/12/18 08:37:18;;;;;;;24.20;12.30;;;;;;;3.25;86.42;102009.09;5069505;28;20024;-70
2021/12/18 08:39:43;;;;;;;21.58;12.07;;;;;;;3.25;86.58;101997.59;5056885;28;20102;-70
2021/12/18 08:42:09;;;;;;;19.95;11.52;;;;;;;3.29;86.16;101999.28;5055496;28;20091;-70
2021/12/18 08:44:34;;;;;;;19.15;11.05;;;;;;;3.35;86.32;101996.44;5060810;28;20020;-71
2021/12/18 08:47:01;;;;;;;22.88;11.82;;;;;;;3.42;85.51;102005.91;5064172;28;20056;-71
2021/12/18 08:49:27;;;;;;;19.20;11.50;;;;;;;3.45;85.32;102005.81;5062515;28;20020;-71
2021/12/18 08:51:54;;;;;;;22.02;10.88;;;;;;;3.52;84.62;102020.63;5061982;28;20479;-70
2021/12/18 08:54:20;;;;;;;19.13;11.27;;;;;;;3.59;83.84;102019.50;5057986;28;20027;-70
2021/12/18 08:56:45;;;;;;;23.80;10.63;;;;;;;3.59;83.29;102014.19;5061092;28;20025;-70
2021/12/18 08:59:11;;;;;;;22.73;11.27;;;;;;;3.70;82.56;102014.72;5060066;28;20032;-70
2021/12/18 09:01:36;;;;;;;18.92;10.85;;;;;;;3.76;81.68;102020.69;5071694;28;20129;-65
2021/12/18 09:04:02;;;;;;;25.88;13.02;;;;;;;3.81;81.60;102009.94;5050798;28;20028;-65
2021/12/18 09:06:28;;;;;;;28.63;12.50;;;;;;;3.84;81.45;102016.00;5051446;28;20395;-65
2021/12/18 09:08:53;;;;;;;21.23;12.00;;;;;;;3.87;80.61;102005.28;5063728;28;20033;-65
2021/12/18 09:11:19;;;;;;;23.70;11.65;;;;;;;3.97;79.43;102009.34;5069173;28;20025;-65
2021/12/18 09:13:45;;;;;;;25.73;12.90;;;;;;;4.10;78.05;102001.84;5064434;28;20356;-66
2021/12/18 09:16:11;;;;;;;31.02;15.85;;;;;;;4.06;78.42;101993.13;5067465;28;20082;-66
2021/12/18 09:18:36;;;;;;;27.10;14.00;;;;;;;4.13;78.40;101999.94;5054397;28;20090;-65
2021/12/18 09:21:02;;;;;;;18.77;10.77;;;;;;;4.16;77.65;101999.84;5052937;28;20019;-66
2021/12/18 09:23:28;;;;;;;18.73;10.50;;;;;;;4.13;77.58;101989.31;5049542;28;20025;-65
2021/12/18 09:25:54;;;;;;;17.00;10.55;;;;;;;4.18;77.55;101989.16;5058718;28;20108;-66
2021/12/18 09:28:19;;;;;;;19.23;10.40;;;;;;;4.29;76.01;101987.03;5067524;28;20582;-66
2021/12/18 09:30:45;;;;;;;19.77;10.73;;;;;;;4.27;76.54;101972.91;5070782;28;20059;-66
2021/12/18 09:33:13;;;;;;;17.27;10.38;;;;;;;4.40;75.79;101980.41;5051044;28;20035;-66
2021/12/18 09:35:39;;;;;;;21.88;10.57;;;;;;;4.41;75.87;101979.47;5058608;28;20025;-65
2021/12/18 09:38:05;;;;;;;20.08;11.27;;;;;;;4.39;75.93;101980.44;5050349;28;20048;-66
2021/12/18 09:40:32;;;;;;;25.88;12.30;;;;;;;4.45;75.11;101977.59;5057619;28;20049;-66
2021/12/18 09:42:58;;;;;;;18.15;10.25;;;;;;;4.45;75.11;101977.59;5053092;28;20092;-65
2021/12/18 09:45:24;;;;;;;19.40;10.57;;;;;;;4.50;75.34;101976.47;5048983;28;20115;-65
2021/12/18 09:47:50;;;;;;;21.67;10.23;;;;;;;4.50;75.23;101970.28;5049146;28;20076;-65
2021/12/18 09:50:18;;;;;;;23.80;11.38;;;;;;;4.55;74.83;101963.03;5059774;28;20479;-66
2021/12/18 09:52:44;;;;;;;21.98;11.57;;;;;;;4.64;74.22;101963.53;5045583;28;20052;-66
2021/12/18 09:55:10;;;;;;;15.70;9.85;;;;;;;4.67;74.08;101962.56;5052624;28;20025;-66
2021/12/18 09:57:37;;;;;;;29.95;12.18;;;;;;;4.73;73.31;101965.00;5056671;28;20055;-66
2021/12/18 10:00:11;;;;;;;27.02;11.35;;;;;;;4.71;73.22;101962.38;5055353;28;20032;-66
2021/12/18 10:02:36;;;;;;;24.40;10.40;;;;;;;4.78;73.06;101972.78;5050096;28;20045;-66
2021/12/18 10:05:02;;;;;;;21.48;11.63;;;;;;;4.78;73.24;101963.03;5049342;28;20031;-66
2021/12/18 10:07:28;;;;;;;27.10;13.98;;;;;;;4.93;71.76;101974.88;5068226;28;20395;-66
2021/12/18 10:09:57;;;;;;;20.60;10.93;;;;;;;4.96;70.81;101977.41;5057808;28;20029;-65
2021/12/18 10:12:32;;;;;;;20.98;10.10;;;;;;;4.99;70.08;101983.47;5051703;28;20037;-66
2021/12/18 10:15:13;;;;;;;17.00;8.82;;;;;;;5.09;69.59;101987.50;5047462;28;20025;-66
2021/12/18 10:17:42;;;;;;;13.50;8.32;;;;;;;5.08;69.23;101982.25;5066467;28;20045;-66
2021/12/18 10:20:10;;;;;;;15.05;9.02;;;;;;;5.14;69.26;101987.31;5060954;28;20037;-65
2021/12/18 10:22:53;;;;;;;16.90;9.40;;;;;;;5.12;69.49;101987.38;5067483;28;20052;-66
2021/12/18 10:25:25;;;;;;;19.50;10.32;;;;;;;5.15;69.79;101976.63;5047053;28;20025;-65
2021/12/18 10:28:02;;;;;;;15.18;9.60;;;;;;;5.21;69.80;101983.50;5046387;28;20045;-66
2021/12/18 10:30:27;;;;;;;21.52;10.70;;;;;;;5.24;69.48;101981.59;5051271;28;20031;-66
2021/12/18 10:33:07;;;;;;;21.35;9.68;;;;;;;5.36;68.77;101980.25;5061189;28;20029;-66
2021/12/18 10:35:40;;;;;;;15.93;9.95;;;;;;;5.35;69.05;101966.06;5061675;28;20025;-66
2021/12/18 10:38:06;;;;;;;16.95;9.85;;;;;;;5.40;67.70;101964.09;5050273;28;20040;-66
2021/12/18 10:40:58;;;;;;;15.68;8.70;;;;;;;5.44;67.76;101962.16;5044133;28;20024;-66
2021/12/18 10:43:24;;;;;;;17.48;9.02;;;;;;;5.46;68.16;101955.88;5058788;28;20075;-66
2021/12/18 10:45:49;;;;;;;15.90;9.18;;;;;;;5.50;67.45;101968.13;5058655;28;20083;-66
2021/12/18 10:48:16;;;;;;;19.75;9.65;;;;;;;5.50;67.90;101945.94;5055005;28;20037;-65
2021/12/18 10:50:53;;;;;;;18.20;9.35;;;;;;;5.56;67.33;101953.69;5046166;28;20464;-66
2021/12/18 10:53:30;;;;;;;17.38;10.05;;;;;;;5.57;66.90;101942.09;5059218;28;20028;-66
2021/12/18 10:56:01;;;;;;;17.30;10.20;;;;;;;5.64;66.50;101949.78;5059053;28;20051;-66
2021/12/18 10:58:36;;;;;;;13.45;9.18;;;;;;;5.63;66.65;101953.38;5049607;28;20066;-66
2021/12/18 11:01:21;;;;;;;18.30;10.10;;;;;;;5.71;66.13;101945.91;5045193;28;20118;-66
2021/12/18 11:03:49;;;;;;;15.50;9.65;;;;;;;5.78;65.30;101934.09;5072342;28;20554;-66
2021/12/18 11:06:22;;;;;;;12.60;7.90;;;;;;;5.85;65.23;101940.94;5052210;28;20040;-66
2021/12/18 11:09:06;;;;;;;13.02;8.35;;;;;;;5.86;65.53;101940.00;5050694;28;20048;-66
2021/12/18 11:14:31;;;;;;;12.70;8.45;;;;;;;5.95;64.73;101928.94;5049718;28;20041;-65
2021/12/18 11:17:03;;;;;;;15.13;8.48;;;;;;;5.98;65.15;101922.63;5049460;28;20080;-66
2021/12/18 11:19:31;;;;;;;14.00;8.45;;;;;;;6.01;64.40;101923.38;5055172;28;20021;-66
2021/12/18 11:22:04;;;;;;;11.70;8.18;;;;;;;6.04;63.50;101912.59;5046560;28;20112;-66
2021/12/18 11:25:06;;;;;;;14.60;7.90;;;;;;;6.11;62.84;101910.50;5047200;28;20124;-66
2021/12/18 11:27:34;;;;;;;14.55;7.75;;;;;;;6.17;61.88;101892.47;5051123;28;20525;-66
2021/12/18 11:30:14;;;;;;;13.80;7.45;;;;;;;6.19;61.56;101895.06;5043556;28;20051;-66
2021/12/18 11:32:42;;;;;;;29.23;16.77;;;;;;;6.14;61.86;101876.63;5045775;28;20028;-67
2021/12/18 11:35:11;;;;;;;31.13;16.20;;;;;;;6.14;62.03;101865.97;5053717;28;20446;-65
2021/12/18 11:37:49;;;;;;;17.95;10.00;;;;;;;6.22;61.62;101870.91;5056360;28;20040;-66
2021/12/18 11:40:18;;;;;;;14.15;7.82;;;;;;;6.26;60.94;101870.72;5051622;28;20032;-66
2021/12/18 11:42:43;;;;;;;15.88;9.07;;;;;;;6.19;61.65;101852.44;5054515;28;20112;-66
2021/12/18 11:45:10;;;;;;;20.80;9.90;;;;;;;6.28;62.10;101859.97;5049584;28;20031;-65
2021/12/18 11:47:44;;;;;;;18.30;9.70;;;;;;;6.28;62.65;101858.19;5048487;28;20512;-66
2021/12/18 11:50:09;;;;;;;;;;;;;;;6.33;62.33;101850.88;5050386;28;20535;-66
2021/12/18 11:53:10;;;;;;;17.00;9.40;;;;;;;6.34;62.19;101841.94;5049268;28;20038;-66
2021/12/18 11:55:49;;;;;;;18.65;9.90;;;;;;;6.35;62.30;101842.78;5048394;28;20511;-66
2021/12/18 11:58:45;;;;;;;13.35;7.88;;;;;;;6.17;60.93;101801.88;5060917;28;20840;-66
2021/12/18 12:01:25;;;;;;;16.38;6.50;;;;;;;6.62;59.61;101852.16;5054401;28;20052;-65
2021/12/18 12:03:50;;;;;;;12.13;7.32;;;;;;;6.60;60.10;101849.56;5061371;28;20025;-67
2021/12/18 12:06:24;;;;;;;12.80;7.78;;;;;;;6.61;60.47;101856.63;5060430;28;20511;-66
2021/12/18 12:09:10;;;;;;;14.40;8.13;;;;;;;6.57;59.95;101833.72;5051039;28;20044;-66
2021/12/18 12:11:53;;;;;;;12.77;7.63;;;;;;;6.61;60.12;101837.13;5046829;28;20040;-67